Time,TemperatureF,DewpointF,PressureIn,WindDirection,WindDirectionDegrees,WindSpeedMPH,WindSpeedGustMPH,Humidity,HourlyPrecipIn,Conditions,Clouds,dailyrainin,SoftwareType,DateUTC
2013-09-20 00:06:00,68.4,66.0,29.64,SSW,205,0.0,-999.0,91,-99.99,,,0.48,weatherlink.com 1.10,2013-09-20 05:06:00,
2013-09-20 00:21:00,68.1,65.0,29.63,SSW,205,2.0,-999.0,91,-99.99,,,0.48,weatherlink.com 1.10,2013-09-20 05:21:00,
2013-09-20 00:36:00,67.9,66.0,29.66,SSW,205,1.0,-999.0,93,-99.99,,,0.00,weatherlink.com 1.10,2013-09-20 05:36:00,
2013-09-20 00:51:00,67.9,66.0,29.66,SW,236,0.0,-999.0,93,-99.99,,,0.00,weatherlink.com 1.10,2013-09-20 05:51:00,
2013-09-20 01:06:00,67.9,66.0,29.66,South,182,3.0,-999.0,93,-99.99,,,0.00,weatherlink.com 1.10,2013-09-20 06:06:00,
2013-09-20 01:21:00,67.9,66.0,29.66,South,180,2.0,-999.0,93,-99.99,,,0.00,weatherlink.com 1.10,2013-09-20 06:21:00,
2013-09-20 01:36:00,67.6,66.0,29.67,South,184,4.0,-999.0,93,-99.99,,,0.00,weatherlink.com 1.10,2013-09-20 06:36:00,
2013-09-20 01:51:00,67.4,66.0,29.67,SSW,202,2.0,-999.0,94,-99.99,,,0.00,weatherlink.com 1.10,2013-09-20 06:51:00,
2013-09-20 02:06:00,67.4,66.0,29.67,SSW,192,1.0,-999.0,94,-99.99,,,0.00,weatherlink.com 1.10,2013-09-20 07:06:00,
2013-09-20 02:21:00,67.4,66.0,29.67,South,185,4.0,-999.0,94,-99.99,,,0.00,weatherlink.com 1.10,2013-09-20 07:21:00,
2013-09-20 02:36:00,67.6,66.0,29.66,SSW,209,4.0,-999.0,94,-99.99,,,0.00,weatherlink.com 1.10,2013-09-20 07:36:00,
2013-09-20 02:51:00,67.6,66.0,29.66,SSW,193,5.0,-999.0,95,-99.99,,,0.00,weatherlink.com 1.10,2013-09-20 07:51:00,
2013-09-20 03:06:00,67.8,66.0,29.65,SSW,211,0.0,-999.0,95,-99.99,,,0.00,weatherlink.com 1.10,2013-09-20 08:06:00,
2013-09-20 03:21:00,67.9,67.0,29.65,SSW,197,3.0,-999.0,95,-99.99,,,0.00,weatherlink.com 1.10,2013-09-20 08:21:00,
2013-09-20 03:36:00,67.9,67.0,29.64,South,179,0.0,-999.0,95,-99.99,,,0.00,weatherlink.com 1.10,2013-09-20 08:36:00,
2013-09-20 03:51:00,67.9,67.0,29.64,SSW,198,0.0,-999.0,95,-99.99,,,0.00,weatherlink.com 1.10,2013-09-20 08:51:00,
2013-09-20 04:06:00,67.8,66.0,29.63,SSW,198,2.0,-999.0,95,-99.99,,,0.01,weatherlink.com 1.10,2013-09-20 09:06:00,
2013-09-20 04:21:00,67.6,67.0,29.62,SSW,198,3.0,-999.0,96,-99.99,,,0.01,weatherlink.com 1.10,2013-09-20 09:21:00,
2013-09-20 04:36:00,67.4,66.0,29.62,SSW,198,2.0,-999.0,96,-99.99,,,0.01,weatherlink.com 1.10,2013-09-20 09:36:00,
2013-09-20 04:51:00,67.4,66.0,29.62,SSW,213,2.0,-999.0,96,-99.99,,,0.01,weatherlink.com 1.10,2013-09-20 09:51:00,
2013-09-20 05:06:00,67.4,66.0,29.62,SW,217,0.0,-999.0,96,-99.99,,,0.01,weatherlink.com 1.10,2013-09-20 10:06:00,
2013-09-20 05:21:00,67.4,66.0,29.62,West,271,0.0,-999.0,96,-99.99,,,0.01,weatherlink.com 1.10,2013-09-20 10:21:00,
2013-09-20 05:36:00,67.4,66.0,29.63,WSW,254,0.0,-999.0,96,-99.99,,,0.01,weatherlink.com 1.10,2013-09-20 10:36:00,
2013-09-20 05:51:00,67.3,66.0,29.64,SSW,210,6.0,-999.0,96,-99.99,,,0.01,weatherlink.com 1.10,2013-09-20 10:51:00,
2013-09-20 06:06:00,67.3,66.0,29.64,WNW,284,3.0,-999.0,96,-99.99,,,0.01,weatherlink.com 1.10,2013-09-20 11:06:00,
2013-09-20 06:21:00,67.3,66.0,29.64,West,269,4.0,-999.0,96,-99.99,,,0.01,weatherlink.com 1.10,2013-09-20 11:21:00,
2013-09-20 06:36:00,67.3,66.0,29.64,SW,222,3.0,-999.0,95,-99.99,,,0.01,weatherlink.com 1.10,2013-09-20 11:36:00,
2013-09-20 06:51:00,67.1,66.0,29.65,SW,223,0.0,-999.0,95,-99.99,,,0.01,weatherlink.com 1.10,2013-09-20 11:51:00,
2013-09-20 07:06:00,67.1,66.0,29.66,SW,223,2.0,-999.0,95,-99.99,,,0.01,weatherlink.com 1.10,2013-09-20 12:06:00,
2013-09-20 07:21:00,67.3,66.0,29.66,SW,236,0.0,-999.0,95,-99.99,,,0.01,weatherlink.com 1.10,2013-09-20 12:21:00,
2013-09-20 07:36:00,67.4,66.0,29.66,SW,229,4.0,-999.0,95,-99.99,,,0.01,weatherlink.com 1.10,2013-09-20 12:36:00,
2013-09-20 07:51:00,67.6,66.0,29.66,SSW,202,3.0,-999.0,94,-99.99,,,0.01,weatherlink.com 1.10,2013-09-20 12:51:00,
2013-09-20 08:06:00,67.6,66.0,29.67,WSW,242,4.0,-999.0,94,-99.99,,,0.01,weatherlink.com 1.10,2013-09-20 13:06:00,
2013-09-20 08:21:00,67.8,66.0,29.66,SSW,196,1.0,-999.0,94,-99.99,,,0.01,weatherlink.com 1.10,2013-09-20 13:21:00,
2013-09-20 08:36:00,67.8,66.0,29.66,SSW,209,3.0,-999.0,94,-99.99,,,0.01,weatherlink.com 1.10,2013-09-20 13:36:00,
2013-09-20 08:51:00,68.1,66.0,29.67,SSW,203,6.0,-999.0,94,-99.99,,,0.01,weatherlink.com 1.10,2013-09-20 13:51:00,
2013-09-20 09:06:00,68.1,66.0,29.68,SW,229,0.0,-999.0,93,-99.99,,,0.01,weatherlink.com 1.10,2013-09-20 14:06:00,
2013-09-20 09:21:00,68.4,66.0,29.68,SSW,213,6.0,-999.0,92,-99.99,,,0.01,weatherlink.com 1.10,2013-09-20 14:21:00,
2013-09-20 09:36:00,68.6,66.0,29.68,SW,229,0.0,-999.0,91,-99.99,,,0.01,weatherlink.com 1.10,2013-09-20 14:36:00,
2013-09-20 09:51:00,69.1,66.0,29.68,SW,219,2.0,-999.0,89,-99.99,,,0.01,weatherlink.com 1.10,2013-09-20 14:51:00,
2013-09-20 10:06:00,69.6,66.0,29.68,SSW,202,3.0,-999.0,88,-99.99,,,0.01,weatherlink.com 1.10,2013-09-20 15:06:00,
2013-09-20 10:21:00,69.9,65.0,29.67,WSW,247,2.0,-999.0,85,-99.99,,,0.01,weatherlink.com 1.10,2013-09-20 15:21:00,
2013-09-20 10:36:00,70.3,65.0,29.67,WNW,294,3.0,-999.0,82,-99.99,,,0.01,weatherlink.com 1.10,2013-09-20 15:36:00,
2013-09-20 10:51:00,70.3,65.0,29.68,SW,218,3.0,-999.0,83,-99.99,,,0.01,weatherlink.com 1.10,2013-09-20 15:51:00,
2013-09-20 11:06:00,69.8,64.0,29.67,West,273,5.0,-999.0,82,-99.99,,,0.01,weatherlink.com 1.10,2013-09-20 16:06:00,
2013-09-20 11:21:00,70.6,65.0,29.67,WSW,254,0.0,-999.0,81,-99.99,,,0.01,weatherlink.com 1.10,2013-09-20 16:21:00,
2013-09-20 11:36:00,71.6,64.0,29.67,West,273,1.0,-999.0,77,-99.99,,,0.01,weatherlink.com 1.10,2013-09-20 16:36:00,
2013-09-20 11:50:00,71.5,63.0,29.66,West,279,4.0,-999.0,75,-99.99,,,0.01,weatherlink.com 1.10,2013-09-20 16:50:00,
2013-09-20 12:05:00,71.5,63.0,29.67,WSW,240,2.0,-999.0,75,-99.99,,,0.01,weatherlink.com 1.10,2013-09-20 17:05:00,
2013-09-20 12:20:00,71.3,63.0,29.67,West,267,6.0,-999.0,75,-99.99,,,0.01,weatherlink.com 1.10,2013-09-20 17:20:00,
2013-09-20 12:35:00,70.8,62.0,29.67,WNW,292,4.0,-999.0,73,-99.99,,,0.01,weatherlink.com 1.10,2013-09-20 17:35:00,
2013-09-20 12:50:00,69.9,61.0,29.67,NW,325,4.0,-999.0,74,-99.99,,,0.02,weatherlink.com 1.10,2013-09-20 17:50:00,
2013-09-20 13:07:00,70.4,61.0,29.67,West,269,5.0,-999.0,71,-99.99,,,0.02,weatherlink.com 1.10,2013-09-20 18:07:00,
2013-09-20 13:21:00,70.4,61.0,29.67,West,277,5.0,-999.0,71,-99.99,,,0.02,weatherlink.com 1.10,2013-09-20 18:21:00,
2013-09-20 13:36:00,70.4,60.0,29.66,West,279,0.0,-999.0,69,-99.99,,,0.02,weatherlink.com 1.10,2013-09-20 18:36:00,
2013-09-20 13:51:00,70.9,60.0,29.66,WSW,258,6.0,-999.0,69,-99.99,,,0.02,weatherlink.com 1.10,2013-09-20 18:51:00,
2013-09-20 14:06:00,71.1,60.0,29.66,WSW,257,10.0,-999.0,68,-99.99,,,0.02,weatherlink.com 1.10,2013-09-20 19:06:00,
2013-09-20 14:21:00,70.8,60.0,29.66,WSW,252,3.0,-999.0,68,-99.99,,,0.02,weatherlink.com 1.10,2013-09-20 19:21:00,
2013-09-20 14:36:00,71.3,61.0,29.66,NNW,331,5.0,-999.0,69,-99.99,,,0.02,weatherlink.com 1.10,2013-09-20 19:36:00,
2013-09-20 14:51:00,70.1,59.0,29.66,SSW,196,3.0,-999.0,69,-99.99,,,0.02,weatherlink.com 1.10,2013-09-20 19:51:00,
2013-09-20 15:06:00,69.9,59.0,29.66,SW,225,8.0,-999.0,69,-99.99,,,0.02,weatherlink.com 1.10,2013-09-20 20:06:00,
2013-09-20 15:21:00,69.8,59.0,29.66,WSW,250,9.0,-999.0,68,-99.99,,,0.02,weatherlink.com 1.10,2013-09-20 20:21:00,
2013-09-20 15:36:00,68.9,58.0,29.67,SSW,199,2.0,-999.0,69,-99.99,,,0.02,weatherlink.com 1.10,2013-09-20 20:36:00,
2013-09-20 15:51:00,67.9,58.0,29.68,West,281,15.0,-999.0,70,-99.99,,,0.02,weatherlink.com 1.10,2013-09-20 20:51:00,
2013-09-20 16:06:00,68.3,57.0,29.68,WSW,242,6.0,-999.0,68,-99.99,,,0.02,weatherlink.com 1.10,2013-09-20 21:06:00,
2013-09-20 16:21:00,67.9,57.0,29.68,NW,310,8.0,-999.0,68,-99.99,,,0.02,weatherlink.com 1.10,2013-09-20 21:21:00,
2013-09-20 16:36:00,67.9,56.0,29.67,West,269,4.0,-999.0,67,-99.99,,,0.02,weatherlink.com 1.10,2013-09-20 21:36:00,
2013-09-20 16:51:00,68.8,55.0,29.67,West,269,7.0,-999.0,62,-99.99,,,0.02,weatherlink.com 1.10,2013-09-20 21:51:00,
2013-09-20 17:06:00,68.1,56.0,29.68,SSW,207,6.0,-999.0,66,-99.99,,,0.02,weatherlink.com 1.10,2013-09-20 22:06:00,
2013-09-20 17:21:00,68.1,57.0,29.67,West,275,7.0,-999.0,67,-99.99,,,0.02,weatherlink.com 1.10,2013-09-20 22:21:00,
2013-09-20 17:36:00,67.6,57.0,29.67,SW,223,6.0,-999.0,68,-99.99,,,0.02,weatherlink.com 1.10,2013-09-20 22:36:00,
2013-09-20 17:51:00,67.6,57.0,29.68,SW,227,2.0,-999.0,69,-99.99,,,0.02,weatherlink.com 1.10,2013-09-20 22:51:00,
2013-09-20 18:06:00,67.3,57.0,29.67,West,269,9.0,-999.0,69,-99.99,,,0.02,weatherlink.com 1.10,2013-09-20 23:06:00,
2013-09-20 18:21:00,66.8,56.0,29.68,WNW,296,10.0,-999.0,69,-99.99,,,0.02,weatherlink.com 1.10,2013-09-20 23:21:00,
2013-09-20 18:36:00,66.0,56.0,29.68,SW,219,6.0,-999.0,69,-99.99,,,0.02,weatherlink.com 1.10,2013-09-20 23:36:00,
2013-09-20 18:51:00,65.2,55.0,29.68,WNW,286,1.0,-999.0,70,-99.99,,,0.02,weatherlink.com 1.10,2013-09-20 23:51:00,
2013-09-20 19:06:00,64.7,55.0,29.69,West,275,0.0,-999.0,71,-99.99,,,0.02,weatherlink.com 1.10,2013-09-21 00:06:00,
2013-09-20 19:21:00,64.2,55.0,29.70,West,259,9.0,-999.0,72,-99.99,,,0.02,weatherlink.com 1.10,2013-09-21 00:21:00,
2013-09-20 19:36:00,63.9,55.0,29.70,WSW,252,4.0,-999.0,73,-99.99,,,0.02,weatherlink.com 1.10,2013-09-21 00:36:00,
2013-09-20 19:51:00,63.4,55.0,29.70,WSW,250,8.0,-999.0,74,-99.99,,,0.02,weatherlink.com 1.10,2013-09-21 00:51:00,
2013-09-20 20:06:00,63.4,55.0,29.71,West,277,6.0,-999.0,75,-99.99,,,0.02,weatherlink.com 1.10,2013-09-21 01:06:00,
2013-09-20 20:21:00,63.4,55.0,29.71,South,188,6.0,-999.0,75,-99.99,,,0.02,weatherlink.com 1.10,2013-09-21 01:21:00,
2013-09-20 20:36:00,63.2,56.0,29.72,WNW,298,4.0,-999.0,76,-99.99,,,0.02,weatherlink.com 1.10,2013-09-21 01:36:00,
2013-09-20 20:51:00,62.9,56.0,29.72,West,277,4.0,-999.0,77,-99.99,,,0.02,weatherlink.com 1.10,2013-09-21 01:51:00,
2013-09-20 21:06:00,62.6,56.0,29.73,WNW,300,6.0,-999.0,78,-99.99,,,0.02,weatherlink.com 1.10,2013-09-21 02:06:00,
2013-09-20 21:21:00,62.4,55.0,29.73,NW,310,6.0,-999.0,78,-99.99,,,0.02,weatherlink.com 1.10,2013-09-21 02:21:00,
2013-09-20 21:36:00,62.3,55.0,29.73,NW,307,7.0,-999.0,78,-99.99,,,0.02,weatherlink.com 1.10,2013-09-21 02:36:00,
2013-09-20 21:51:00,62.0,55.0,29.73,NW,319,7.0,-999.0,78,-99.99,,,0.02,weatherlink.com 1.10,2013-09-21 02:51:00,
2013-09-20 22:06:00,61.6,54.0,29.73,NW,313,12.0,-999.0,77,-99.99,,,0.02,weatherlink.com 1.10,2013-09-21 03:06:00,
2013-09-20 22:21:00,61.5,53.0,29.73,NW,309,12.0,-999.0,73,-99.99,,,0.02,weatherlink.com 1.10,2013-09-21 03:21:00,
2013-09-20 22:36:00,61.3,53.0,29.74,NW,306,10.0,-999.0,73,-99.99,,,0.02,weatherlink.com 1.10,2013-09-21 03:36:00,
2013-09-20 22:51:00,61.0,53.0,29.75,NNW,327,7.0,-999.0,74,-99.99,,,0.02,weatherlink.com 1.10,2013-09-21 03:51:00,
2013-09-20 23:06:00,60.7,52.0,29.75,North,355,10.0,-999.0,73,-99.99,,,0.02,weatherlink.com 1.10,2013-09-21 04:06:00,
2013-09-20 23:21:00,59.8,53.0,29.75,NW,305,13.0,-999.0,77,-99.99,,,0.02,weatherlink.com 1.10,2013-09-21 04:21:00,
2013-09-20 23:36:00,58.4,53.0,29.75,North,360,5.0,-999.0,81,-99.99,,,0.02,weatherlink.com 1.10,2013-09-21 04:36:00,
2013-09-20 23:51:00,58.3,52.0,29.75,NNW,331,3.0,-999.0,79,-99.99,,,0.02,weatherlink.com 1.10,2013-09-21 04:51:00,